createdAt,value
2017-03-18T00:00:08.688Z,42.1
2017-03-18T00:00:40.931Z,41.8
2017-03-18T00:01:13.277Z,41.9
2017-03-18T00:01:46.264Z,42.1
2017-03-18T00:02:18.508Z,42
2017-03-18T00:02:50.767Z,42
2017-03-18T00:03:22.996Z,42
2017-03-18T00:03:55.246Z,41.9
2017-03-18T00:04:27.517Z,41.9
2017-03-18T00:04:59.789Z,41.9
2017-03-18T00:05:32.055Z,42
2017-03-18T00:06:04.298Z,42
2017-03-18T00:06:36.565Z,42
2017-03-18T00:07:08.849Z,42.1
2017-03-18T00:07:41.114Z,41.9
2017-03-18T00:08:13.360Z,42
2017-03-18T00:08:45.656Z,42.19
2017-03-18T00:09:17.924Z,42
2017-03-18T00:09:50.179Z,42
2017-03-18T00:10:22.447Z,42.1
2017-03-18T00:10:54.690Z,42
2017-03-18T00:11:27.858Z,42.19
2017-03-18T00:12:00.120Z,42
2017-03-18T00:12:32.437Z,42.19
2017-03-18T00:13:04.744Z,42.1
2017-03-18T00:13:37.097Z,42.1
2017-03-18T00:14:09.427Z,42.1
2017-03-18T00:14:41.733Z,42
2017-03-18T00:15:14.049Z,42.1
2017-03-18T00:15:46.370Z,42.1
2017-03-18T00:16:18.675Z,42.19
2017-03-18T00:16:50.990Z,42
2017-03-18T00:17:23.335Z,42
2017-03-18T00:17:55.645Z,42.19
2017-03-18T00:18:27.966Z,42.1
2017-03-18T00:19:00.302Z,42.1
2017-03-18T00:19:32.617Z,42.1
2017-03-18T00:20:04.943Z,42
2017-03-18T00:20:37.265Z,42
2017-03-18T00:21:09.624Z,42
2017-03-18T00:21:41.933Z,42.19
2017-03-18T00:22:14.258Z,42.1
2017-03-18T00:22:46.579Z,41.9
2017-03-18T00:23:18.903Z,42
2017-03-18T00:23:51.228Z,42.19
2017-03-18T00:24:23.552Z,42.19
2017-03-18T00:24:55.878Z,41.9
2017-03-18T00:25:28.208Z,42
2017-03-18T00:26:00.526Z,42.1
2017-03-18T00:26:32.840Z,42.1
2017-03-18T00:27:05.172Z,42.1
2017-03-18T00:27:37.485Z,42
2017-03-18T00:28:09.832Z,42
2017-03-18T00:28:42.200Z,42
2017-03-18T00:29:14.537Z,41.9
2017-03-18T00:29:46.861Z,42
2017-03-18T00:30:19.172Z,42.19
2017-03-18T00:30:51.482Z,42
2017-03-18T00:31:23.776Z,42.1
2017-03-18T00:31:56.065Z,42.1
2017-03-18T00:32:28.344Z,42.1
2017-03-18T00:33:00.621Z,42.19
2017-03-18T00:33:32.857Z,42
2017-03-18T00:34:05.109Z,42.1
2017-03-18T00:34:37.362Z,42.1
2017-03-18T00:35:10.272Z,42.1
2017-03-18T00:35:42.541Z,42.19
2017-03-18T00:36:14.814Z,42.1
2017-03-18T00:36:47.071Z,42.19
2017-03-18T00:37:20.279Z,42.19
2017-03-18T00:37:52.542Z,42.19
2017-03-18T00:38:24.811Z,42.1
2017-03-18T00:38:57.064Z,42.1
2017-03-18T00:39:29.340Z,42.21
2017-03-18T00:40:01.587Z,42.19
2017-03-18T00:40:35.373Z,42.29
2017-03-18T00:41:07.652Z,42.1
2017-03-18T00:41:39.888Z,42.19
2017-03-18T00:42:12.133Z,42.19
2017-03-18T00:42:44.516Z,42.29
2017-03-18T00:43:17.261Z,42.1
2017-03-18T00:43:49.572Z,42.3
2017-03-18T00:44:21.844Z,42.29
2017-03-18T00:44:54.121Z,42.29
2017-03-18T00:45:26.504Z,42.21
2017-03-18T00:45:58.751Z,42.19
2017-03-18T00:46:31.016Z,42.19
2017-03-18T00:47:03.286Z,42.29
2017-03-18T00:47:35.521Z,42.29
2017-03-18T00:48:07.798Z,42.3
2017-03-18T00:48:40.064Z,42.29
2017-03-18T00:49:12.896Z,42.3
2017-03-18T00:49:45.192Z,42.1
2017-03-18T00:50:17.451Z,42.02
2017-03-18T00:50:49.694Z,42.21
2017-03-18T00:51:21.943Z,42.38
2017-03-18T00:51:54.194Z,42.19
2017-03-18T00:52:26.452Z,42.19
2017-03-18T00:52:58.709Z,42.29
2017-03-18T00:53:30.988Z,42.21
2017-03-18T00:54:03.288Z,42.38
2017-03-18T00:54:35.593Z,42.38
2017-03-18T00:55:07.849Z,42.19
2017-03-18T00:55:40.130Z,42.19
2017-03-18T00:56:12.367Z,42.38
2017-03-18T00:56:44.625Z,42.21
2017-03-18T00:57:16.900Z,42.5
2017-03-18T00:57:49.163Z,42.1
2017-03-18T00:58:21.474Z,42.19
2017-03-18T00:58:53.724Z,42.19
2017-03-18T00:59:25.983Z,42.1
2017-03-18T00:59:58.254Z,42.11
2017-03-18T01:00:30.552Z,42.02
2017-03-18T01:01:02.795Z,42.11
2017-03-18T01:01:35.018Z,42
2017-03-18T01:02:07.250Z,42.1
2017-03-18T01:02:39.517Z,42.19
2017-03-18T01:03:11.929Z,42.11
2017-03-18T01:03:44.732Z,42.19
2017-03-18T01:04:16.992Z,42
2017-03-18T01:04:49.287Z,42.11
2017-03-18T01:05:21.551Z,42.1
2017-03-18T01:05:53.834Z,42.1
2017-03-18T01:06:26.082Z,42.1
2017-03-18T01:06:58.342Z,42.19
2017-03-18T01:07:30.589Z,42.1
2017-03-18T01:08:02.848Z,42.57
2017-03-18T01:08:35.114Z,42.19
2017-03-18T01:09:07.371Z,42.29
2017-03-18T01:09:39.646Z,42
2017-03-18T01:10:11.915Z,42
2017-03-18T01:10:44.158Z,42.38
2017-03-18T01:11:16.499Z,42.1
2017-03-18T01:11:48.791Z,42.19
2017-03-18T01:12:21.108Z,42.19
2017-03-18T01:12:53.410Z,42.29
2017-03-18T01:13:25.725Z,42.19
2017-03-18T01:13:58.077Z,42.19
2017-03-18T01:14:30.396Z,42.19
2017-03-18T01:15:02.735Z,42.29
2017-03-18T01:15:35.061Z,42.19
2017-03-18T01:16:07.376Z,42.29
2017-03-18T01:16:39.700Z,42.19
2017-03-18T01:17:12.026Z,42.19
2017-03-18T01:17:44.351Z,42.19
2017-03-18T01:18:16.668Z,42.19
2017-03-18T01:18:48.995Z,42.29
2017-03-18T01:19:21.331Z,42.29
2017-03-18T01:19:53.679Z,42.29
2017-03-18T01:20:26.012Z,42.29
2017-03-18T01:20:58.324Z,42.1
2017-03-18T01:21:30.643Z,42.29
2017-03-18T01:22:02.935Z,42.29
2017-03-18T01:22:35.252Z,42.19
2017-03-18T01:23:07.589Z,42.19
2017-03-18T01:23:39.917Z,42.38
2017-03-18T01:24:12.241Z,42.29
2017-03-18T01:24:44.580Z,42.29
2017-03-18T01:25:16.896Z,42.29
2017-03-18T01:25:49.206Z,42.38
2017-03-18T01:26:21.538Z,42.38
2017-03-18T01:26:53.860Z,42.47
2017-03-18T01:27:26.175Z,42.38
2017-03-18T01:27:58.493Z,42.47
2017-03-18T01:28:30.804Z,42.19
2017-03-18T01:29:03.138Z,42.38
2017-03-18T01:29:35.477Z,42.47
2017-03-18T01:30:07.787Z,42.29
2017-03-18T01:30:40.103Z,42.29
2017-03-18T01:31:12.411Z,42.38
2017-03-18T01:31:44.716Z,42.47
2017-03-18T01:32:17.046Z,42.47
2017-03-18T01:32:49.362Z,42.38
2017-03-18T01:33:21.685Z,42.57
2017-03-18T01:33:54.045Z,42.47
2017-03-18T01:34:26.375Z,42.47
2017-03-18T01:34:58.711Z,42.38
2017-03-18T01:35:31.041Z,42.57
2017-03-18T01:36:03.382Z,42.47
2017-03-18T01:36:35.702Z,42.57
2017-03-18T01:37:08.022Z,42.47
2017-03-18T01:37:40.333Z,42.57
2017-03-18T01:38:12.649Z,42.57
2017-03-18T01:38:44.975Z,42.47
2017-03-18T01:39:17.329Z,42.47
2017-03-18T01:39:49.661Z,42.47
2017-03-18T01:40:21.987Z,42.47
2017-03-18T01:40:54.309Z,42.57
2017-03-18T01:41:26.643Z,42.57
2017-03-18T01:41:58.940Z,42.47
2017-03-18T01:42:31.198Z,42.57
2017-03-18T01:43:03.461Z,42.67
2017-03-18T01:43:35.733Z,42.57
2017-03-18T01:44:07.994Z,42.57
2017-03-18T01:44:40.241Z,42.57
2017-03-18T01:45:13.389Z,42.67
2017-03-18T01:45:45.615Z,42.57
2017-03-18T01:46:17.880Z,42.57
2017-03-18T01:46:50.765Z,42.67
2017-03-18T01:47:23.012Z,42.57
2017-03-18T01:47:55.250Z,42.67
2017-03-18T01:48:27.529Z,42.47
2017-03-18T01:48:59.791Z,42.77
2017-03-18T01:49:32.044Z,42.29
2017-03-18T01:50:04.349Z,42.38
2017-03-18T01:50:36.600Z,42.86
2017-03-18T01:51:08.839Z,42.77
2017-03-18T01:51:41.102Z,42.57
2017-03-18T01:52:13.452Z,42.47
2017-03-18T01:52:45.788Z,42.67
2017-03-18T01:53:18.061Z,42.67
2017-03-18T01:53:50.339Z,42.67
2017-03-18T01:54:22.605Z,42.77
2017-03-18T01:54:54.895Z,42.77
2017-03-18T01:55:27.308Z,42.38
2017-03-18T01:55:59.631Z,42.86
2017-03-18T01:56:32.446Z,42.38
2017-03-18T01:57:04.814Z,42.96
2017-03-18T01:57:37.083Z,42.46
2017-03-18T01:58:09.337Z,42.47
2017-03-18T01:58:41.605Z,42.47
2017-03-18T01:59:13.904Z,42.57
2017-03-18T01:59:46.151Z,42.77
2017-03-18T02:00:18.414Z,42.65
2017-03-18T02:00:50.665Z,42.57
2017-03-18T02:01:22.937Z,42.67
2017-03-18T02:01:55.195Z,42.57
2017-03-18T02:02:27.508Z,42.47
2017-03-18T02:02:59.827Z,42.67
2017-03-18T02:03:32.143Z,42.67
2017-03-18T02:04:04.451Z,42.55
2017-03-18T02:04:36.778Z,42.67
2017-03-18T02:05:09.089Z,42.65
2017-03-18T02:05:41.395Z,42.46
2017-03-18T02:06:13.701Z,42.65
2017-03-18T02:06:46.035Z,42.67
2017-03-18T02:07:18.351Z,42.77
2017-03-18T02:07:50.665Z,42.77
2017-03-18T02:08:23.008Z,42.77
2017-03-18T02:08:55.317Z,42.55
2017-03-18T02:09:27.627Z,42.77
2017-03-18T02:09:59.949Z,42.57
2017-03-18T02:10:32.268Z,42.77
2017-03-18T02:11:04.587Z,42.57
2017-03-18T02:11:36.906Z,42.77
2017-03-18T02:12:09.217Z,42.67
2017-03-18T02:12:41.498Z,42.77
2017-03-18T02:13:13.750Z,42.67
2017-03-18T02:13:46.830Z,42.77
2017-03-18T02:14:19.110Z,42.77
2017-03-18T02:14:51.378Z,42.86
2017-03-18T02:15:23.645Z,42.77
2017-03-18T02:15:55.965Z,42.57
2017-03-18T02:16:28.227Z,42.55
2017-03-18T02:17:00.487Z,42.55
2017-03-18T02:17:32.741Z,42.65
2017-03-18T02:18:05.007Z,42.55
2017-03-18T02:18:37.259Z,42.67
2017-03-18T02:19:10.261Z,42.86
2017-03-18T02:19:42.519Z,42.77
2017-03-18T02:20:14.763Z,42.57
2017-03-18T02:20:47.023Z,42.57
2017-03-18T02:21:19.288Z,42.86
2017-03-18T02:21:51.549Z,42.55
2017-03-18T02:22:24.324Z,42.67
2017-03-18T02:22:56.565Z,42.57
2017-03-18T02:23:28.818Z,42.74
2017-03-18T02:24:01.079Z,42.96
2017-03-18T02:24:33.343Z,42.77
2017-03-18T02:25:06.313Z,42.57
2017-03-18T02:25:38.597Z,42.84
2017-03-18T02:26:10.840Z,42.86
2017-03-18T02:26:43.114Z,42.86
2017-03-18T02:27:15.398Z,42.77
2017-03-18T02:27:47.652Z,42.86
2017-03-18T02:28:20.415Z,42.86
2017-03-18T02:28:54.366Z,42.86
2017-03-18T02:29:26.650Z,42.57
2017-03-18T02:29:58.938Z,42.74
2017-03-18T02:30:31.769Z,42.96
2017-03-18T02:31:04.028Z,42.84
2017-03-18T02:31:36.283Z,42.86
2017-03-18T02:32:08.546Z,42.77
2017-03-18T02:32:40.868Z,42.77
2017-03-18T02:33:13.187Z,42.86
2017-03-18T02:33:45.506Z,42.77
2017-03-18T02:34:17.833Z,42.86
2017-03-18T02:34:50.154Z,42.84
2017-03-18T02:35:22.468Z,42.77
2017-03-18T02:35:54.791Z,42.67
2017-03-18T02:36:27.107Z,42.77
2017-03-18T02:36:59.435Z,42.77
2017-03-18T02:37:31.776Z,42.77
2017-03-18T02:38:04.106Z,42.77
2017-03-18T02:38:36.442Z,42.77
2017-03-18T02:39:08.790Z,42.77
2017-03-18T02:39:41.138Z,42.77
2017-03-18T02:40:13.458Z,42.77
2017-03-18T02:40:45.754Z,42.77
2017-03-18T02:41:18.074Z,42.86
2017-03-18T02:41:50.378Z,42.86
2017-03-18T02:42:23.414Z,42.77
2017-03-18T02:42:55.658Z,42.86
2017-03-18T02:43:27.933Z,43.15
2017-03-18T02:44:00.198Z,43.03
2017-03-18T02:44:33.283Z,42.77
2017-03-18T02:45:05.545Z,42.96
2017-03-18T02:45:37.876Z,42.77
2017-03-18T02:46:10.145Z,43.05
2017-03-18T02:46:42.419Z,43.24
2017-03-18T02:47:14.680Z,42.96
2017-03-18T02:47:46.938Z,42.77
2017-03-18T02:48:19.300Z,43.15
2017-03-18T02:48:51.559Z,42.96
2017-03-18T02:49:23.822Z,43.34
2017-03-18T02:49:56.084Z,43.15
2017-03-18T02:50:28.361Z,43.15
2017-03-18T02:51:00.639Z,43.15
2017-03-18T02:51:32.917Z,43.15
2017-03-18T02:52:05.185Z,43.15
2017-03-18T02:52:37.471Z,43.24
2017-03-18T02:53:09.708Z,43.24
2017-03-18T02:53:41.971Z,43.24
2017-03-18T02:54:14.233Z,42.86
2017-03-18T02:54:46.509Z,42.96
2017-03-18T02:55:18.774Z,43.24
2017-03-18T02:55:51.053Z,42.96
2017-03-18T02:56:23.309Z,42.86
2017-03-18T02:56:55.560Z,42.86
2017-03-18T02:57:27.925Z,43.15
2017-03-18T02:58:00.187Z,43.24
2017-03-18T02:58:32.450Z,43.05
2017-03-18T02:59:05.423Z,43.24
2017-03-18T02:59:37.689Z,42.96
2017-03-18T03:00:09.954Z,43.15
2017-03-18T03:00:42.219Z,42.96
2017-03-18T03:01:14.499Z,42.96
2017-03-18T03:01:46.764Z,43.34
2017-03-18T03:02:19.033Z,42.96
2017-03-18T03:02:51.820Z,43.15
2017-03-18T03:03:24.063Z,43.34
2017-03-18T03:03:56.404Z,42.86
2017-03-18T03:04:28.673Z,43.05
2017-03-18T03:05:00.924Z,42.96
2017-03-18T03:05:33.168Z,43.05
2017-03-18T03:06:05.429Z,43.24
2017-03-18T03:06:37.679Z,42.96
2017-03-18T03:07:09.932Z,42.86
2017-03-18T03:07:42.203Z,43.24
2017-03-18T03:08:14.462Z,43.15
2017-03-18T03:08:46.705Z,43.05
2017-03-18T03:09:19.894Z,43.05
2017-03-18T03:09:52.151Z,43.15
2017-03-18T03:10:24.402Z,42.96
2017-03-18T03:10:56.651Z,42.96
2017-03-18T03:11:28.906Z,43.05
2017-03-18T03:12:01.148Z,42.96
2017-03-18T03:12:33.398Z,43.05
2017-03-18T03:13:06.273Z,43.05
2017-03-18T03:13:38.518Z,43.05
2017-03-18T03:14:10.764Z,43.24
2017-03-18T03:14:43.024Z,43.34
2017-03-18T03:15:15.843Z,43.05
2017-03-18T03:15:48.097Z,43.34
2017-03-18T03:16:20.356Z,43.15
2017-03-18T03:16:52.611Z,43.05
2017-03-18T03:17:25.508Z,43.15
2017-03-18T03:17:57.757Z,43.15
2017-03-18T03:18:30.007Z,43.32
2017-03-18T03:19:02.259Z,43.05
2017-03-18T03:19:34.515Z,43.34
2017-03-18T03:20:06.759Z,43.34
2017-03-18T03:20:39.013Z,43.44
2017-03-18T03:21:11.368Z,43.15
2017-03-18T03:21:43.618Z,42.96
2017-03-18T03:22:15.879Z,43.44
2017-03-18T03:22:48.139Z,43.15
2017-03-18T03:23:20.388Z,42.96
2017-03-18T03:23:52.680Z,43.05
2017-03-18T03:24:24.956Z,42.96
2017-03-18T03:24:57.300Z,43.24
2017-03-18T03:25:29.550Z,43.24
2017-03-18T03:26:01.804Z,43.24
2017-03-18T03:26:34.075Z,43.24
2017-03-18T03:27:06.350Z,43.23
2017-03-18T03:27:38.599Z,43.15
2017-03-18T03:28:10.871Z,43.24
2017-03-18T03:28:43.124Z,43.24
2017-03-18T03:29:15.385Z,43.24
2017-03-18T03:29:47.622Z,43.24
2017-03-18T03:30:19.884Z,43.44
2017-03-18T03:30:52.129Z,43.34
2017-03-18T03:31:25.896Z,43.44
2017-03-18T03:31:58.161Z,43.15
2017-03-18T03:32:30.427Z,43.53
2017-03-18T03:33:02.768Z,43.44
2017-03-18T03:33:35.038Z,43.24
2017-03-18T03:34:07.343Z,43.82
2017-03-18T03:34:39.597Z,43.63
2017-03-18T03:35:11.865Z,43.53
2017-03-18T03:35:44.956Z,43.53
2017-03-18T03:36:17.230Z,43.34
2017-03-18T03:36:49.476Z,43.63
2017-03-18T03:37:21.748Z,43.44
2017-03-18T03:37:54.018Z,43.44
2017-03-18T03:38:26.288Z,43.34
2017-03-18T03:38:58.543Z,43.34
2017-03-18T03:39:30.862Z,43.34
2017-03-18T03:40:03.119Z,43.53
2017-03-18T03:40:35.454Z,43.44
2017-03-18T03:41:07.708Z,43.34
2017-03-18T03:41:39.949Z,43.53
2017-03-18T03:42:12.215Z,43.44
2017-03-18T03:42:44.528Z,43.53
2017-03-18T03:43:16.855Z,43.53
2017-03-18T03:43:49.175Z,43.63
2017-03-18T03:44:21.499Z,43.34
2017-03-18T03:44:53.822Z,43.53
2017-03-18T03:45:26.151Z,43.53
2017-03-18T03:45:58.482Z,43.34
2017-03-18T03:46:30.804Z,43.53
2017-03-18T03:47:03.124Z,43.53
2017-03-18T03:47:35.460Z,43.44
2017-03-18T03:48:07.812Z,43.53
2017-03-18T03:48:40.143Z,43.44
2017-03-18T03:49:12.460Z,43.53
2017-03-18T03:49:44.887Z,43.44
2017-03-18T03:50:17.187Z,43.44
2017-03-18T03:50:49.509Z,43.73
2017-03-18T03:51:21.824Z,43.73
2017-03-18T03:51:54.111Z,43.34
2017-03-18T03:52:27.304Z,43.44
2017-03-18T03:52:59.553Z,43.63
2017-03-18T03:53:31.809Z,43.7
2017-03-18T03:54:04.055Z,43.53
2017-03-18T03:54:36.310Z,43.53
2017-03-18T03:55:08.630Z,43.73
2017-03-18T03:55:40.894Z,43.44
2017-03-18T03:56:13.227Z,43.63
2017-03-18T03:56:46.310Z,43.53
2017-03-18T03:57:18.555Z,43.63
2017-03-18T03:57:50.815Z,43.44
2017-03-18T03:58:23.942Z,43.82
2017-03-18T03:58:56.948Z,43.63
2017-03-18T03:59:29.263Z,43.73
2017-03-18T04:00:01.526Z,43.91
2017-03-18T04:00:33.813Z,43.91
2017-03-18T04:01:06.063Z,43.91
2017-03-18T04:01:38.326Z,44.01
2017-03-18T04:02:10.603Z,43.91
2017-03-18T04:02:42.914Z,43.91
2017-03-18T04:03:15.250Z,44.01
2017-03-18T04:03:47.572Z,43.91
2017-03-18T04:04:19.890Z,43.82
2017-03-18T04:04:52.220Z,43.82
2017-03-18T04:05:24.546Z,43.82
2017-03-18T04:05:56.896Z,43.73
2017-03-18T04:06:29.224Z,43.82
2017-03-18T04:07:01.572Z,43.53
2017-03-18T04:07:33.901Z,43.8
2017-03-18T04:08:06.219Z,43.82
2017-03-18T04:08:38.543Z,43.82
2017-03-18T04:09:10.874Z,43.73
2017-03-18T04:09:43.186Z,43.91
2017-03-18T04:10:15.495Z,43.73
2017-03-18T04:10:47.801Z,44.11
2017-03-18T04:11:20.095Z,43.63
2017-03-18T04:11:52.394Z,43.73
2017-03-18T04:12:24.636Z,43.73
2017-03-18T04:12:56.898Z,44.11
2017-03-18T04:13:29.149Z,43.82
2017-03-18T04:14:01.395Z,43.91
2017-03-18T04:14:34.960Z,43.63
2017-03-18T04:15:07.228Z,43.82
2017-03-18T04:15:39.474Z,43.91
2017-03-18T04:16:11.884Z,44.11
2017-03-18T04:16:44.156Z,44.01
2017-03-18T04:17:16.416Z,44.01
2017-03-18T04:17:48.675Z,44.11
2017-03-18T04:18:20.931Z,44.11
2017-03-18T04:18:53.969Z,44.11
2017-03-18T04:19:26.298Z,44.2
2017-03-18T04:19:58.573Z,44.09
2017-03-18T04:20:30.842Z,44.01
2017-03-18T04:21:03.091Z,44.11
2017-03-18T04:21:35.354Z,43.91
2017-03-18T04:22:07.613Z,44.11
2017-03-18T04:22:39.887Z,43.82
2017-03-18T04:23:12.151Z,43.63
2017-03-18T04:23:44.461Z,44.01
2017-03-18T04:24:16.718Z,44.01
2017-03-18T04:24:48.975Z,44.11
2017-03-18T04:25:21.219Z,44.11
2017-03-18T04:25:53.533Z,44.01
2017-03-18T04:26:25.785Z,44.01
2017-03-18T04:26:58.032Z,43.9
2017-03-18T04:27:30.275Z,44.01
2017-03-18T04:28:02.516Z,44.01
2017-03-18T04:28:34.773Z,44.11
2017-03-18T04:29:07.025Z,43.91
2017-03-18T04:29:39.286Z,43.91
2017-03-18T04:30:11.544Z,44.01
2017-03-18T04:30:43.800Z,44.01
2017-03-18T04:31:16.055Z,44.01
2017-03-18T04:31:48.958Z,44.01
2017-03-18T04:32:21.253Z,44.11
2017-03-18T04:32:53.580Z,44.3
2017-03-18T04:33:25.910Z,44.01
2017-03-18T04:33:58.237Z,44.2
2017-03-18T04:34:30.554Z,44.2
2017-03-18T04:35:02.859Z,43.91
2017-03-18T04:35:35.176Z,44.3
2017-03-18T04:36:07.485Z,44.11
2017-03-18T04:36:39.807Z,44.11
2017-03-18T04:37:12.127Z,44.2
2017-03-18T04:37:44.441Z,44.2
2017-03-18T04:38:16.780Z,44.3
2017-03-18T04:38:49.093Z,43.73
2017-03-18T04:39:21.424Z,44.11
2017-03-18T04:39:53.741Z,44.11
2017-03-18T04:40:26.064Z,44.3
2017-03-18T04:40:58.380Z,44.2
2017-03-18T04:41:30.701Z,43.91
2017-03-18T04:42:03.024Z,44.2
2017-03-18T04:42:35.351Z,44.11
2017-03-18T04:43:07.676Z,44.2
2017-03-18T04:43:40.007Z,44.11
2017-03-18T04:44:12.343Z,44.3
2017-03-18T04:44:44.691Z,44.4
2017-03-18T04:45:16.991Z,44.2
2017-03-18T04:45:49.312Z,44.3
2017-03-18T04:46:21.637Z,44.3
2017-03-18T04:46:53.951Z,44.01
2017-03-18T04:47:26.272Z,43.82
2017-03-18T04:47:58.594Z,44.11
2017-03-18T04:48:30.936Z,44.3
2017-03-18T04:49:03.257Z,43.91
2017-03-18T04:49:35.577Z,44.3
2017-03-18T04:50:07.895Z,44.49
2017-03-18T04:50:40.203Z,43.82
2017-03-18T04:51:12.500Z,44.4
2017-03-18T04:51:44.820Z,44.3
2017-03-18T04:52:17.138Z,44.11
2017-03-18T04:52:49.453Z,44.3
2017-03-18T04:53:21.777Z,43.91
2017-03-18T04:53:54.095Z,43.82
2017-03-18T04:54:26.414Z,44.11
2017-03-18T04:54:58.756Z,44.4
2017-03-18T04:55:31.125Z,44.01
2017-03-18T04:56:03.429Z,44.2
2017-03-18T04:56:35.777Z,44.4
2017-03-18T04:57:08.085Z,44.4
2017-03-18T04:57:40.403Z,44.4
2017-03-18T04:58:12.771Z,44.3
2017-03-18T04:58:45.090Z,44.3
2017-03-18T04:59:17.429Z,43.91
2017-03-18T04:59:49.757Z,44.4
2017-03-18T05:00:22.092Z,44.4
2017-03-18T05:00:54.422Z,44.49
2017-03-18T05:01:26.754Z,44.01
2017-03-18T05:01:59.052Z,44.4
2017-03-18T05:02:31.879Z,44.01
2017-03-18T05:03:04.123Z,44.49
2017-03-18T05:03:36.387Z,44.3
2017-03-18T05:04:09.468Z,44.01
2017-03-18T05:04:41.723Z,44.3
2017-03-18T05:05:13.973Z,44.4
2017-03-18T05:05:47.018Z,44.4
2017-03-18T05:06:19.269Z,44.4
2017-03-18T05:06:51.515Z,44.3
2017-03-18T05:07:24.489Z,44.11
2017-03-18T05:07:56.775Z,43.91
2017-03-18T05:08:29.024Z,44.11
2017-03-18T05:09:01.317Z,44.11
2017-03-18T05:09:33.569Z,44.11
2017-03-18T05:10:05.848Z,44.11
2017-03-18T05:10:38.087Z,44.4
2017-03-18T05:11:10.354Z,44.4
2017-03-18T05:11:42.613Z,44.01
2017-03-18T05:12:14.895Z,44.49
2017-03-18T05:12:47.206Z,44.11
2017-03-18T05:13:19.540Z,44.49
2017-03-18T05:13:51.865Z,44.3
2017-03-18T05:14:24.186Z,44.3
2017-03-18T05:14:56.505Z,44.2
2017-03-18T05:15:28.824Z,44.3
2017-03-18T05:16:01.155Z,44.11
2017-03-18T05:16:33.492Z,44.01
2017-03-18T05:17:05.817Z,44.3
2017-03-18T05:17:38.138Z,44.3
2017-03-18T05:18:10.456Z,44.01
2017-03-18T05:18:42.801Z,44.4
2017-03-18T05:19:15.161Z,44.11
2017-03-18T05:19:47.514Z,44.3
2017-03-18T05:20:19.847Z,44.3
2017-03-18T05:20:52.164Z,44.4
2017-03-18T05:21:24.482Z,44.2
2017-03-18T05:21:56.805Z,44.49
2017-03-18T05:22:29.130Z,44.3
2017-03-18T05:23:01.466Z,44.3
2017-03-18T05:23:33.803Z,44.4
2017-03-18T05:24:06.110Z,44.49
2017-03-18T05:24:38.435Z,44.59
2017-03-18T05:25:10.775Z,44.3
2017-03-18T05:25:43.084Z,44.11
2017-03-18T05:26:15.398Z,44.2
2017-03-18T05:26:47.717Z,44.59
2017-03-18T05:27:20.054Z,44.3
2017-03-18T05:27:52.401Z,44.3
2017-03-18T05:28:24.715Z,44.59
2017-03-18T05:28:57.039Z,44.49
2017-03-18T05:29:29.381Z,44.2
2017-03-18T05:30:01.724Z,44.11
2017-03-18T05:30:34.050Z,44.49
2017-03-18T05:31:06.394Z,44.68
2017-03-18T05:31:38.716Z,44.11
2017-03-18T05:32:11.046Z,44.59
2017-03-18T05:32:43.400Z,44.49
2017-03-18T05:33:15.728Z,44.59
2017-03-18T05:33:48.052Z,44.49
2017-03-18T05:34:20.370Z,44.59
2017-03-18T05:34:52.696Z,44.49
2017-03-18T05:35:25.006Z,44.4
2017-03-18T05:35:57.314Z,44.68
2017-03-18T05:36:29.615Z,44.49
2017-03-18T05:37:01.925Z,44.49
2017-03-18T05:37:34.250Z,44.49
2017-03-18T05:38:06.573Z,44.59
2017-03-18T05:38:38.901Z,44.87
2017-03-18T05:39:11.213Z,44.87
2017-03-18T05:39:43.533Z,44.97
2017-03-18T05:40:15.863Z,44.59
2017-03-18T05:40:48.216Z,44.59
2017-03-18T05:41:20.534Z,44.87
2017-03-18T05:41:52.832Z,44.87
2017-03-18T05:42:25.093Z,44.59
2017-03-18T05:42:58.024Z,44.78
2017-03-18T05:43:30.289Z,44.78
2017-03-18T05:44:03.493Z,44.49
2017-03-18T05:44:35.756Z,44.87
2017-03-18T05:45:07.995Z,44.87
2017-03-18T05:45:40.926Z,44.97
2017-03-18T05:46:13.174Z,44.4
2017-03-18T05:46:45.466Z,44.4
2017-03-18T05:47:18.350Z,44.97
2017-03-18T05:47:50.599Z,45.07
2017-03-18T05:48:22.855Z,44.97
2017-03-18T05:48:55.139Z,45.07
2017-03-18T05:49:27.408Z,44.4
2017-03-18T05:49:59.663Z,45.07
2017-03-18T05:50:32.443Z,44.97
2017-03-18T05:51:04.703Z,44.3
2017-03-18T05:51:36.961Z,44.4
2017-03-18T05:52:09.229Z,44.97
2017-03-18T05:52:41.490Z,44.97
2017-03-18T05:53:13.777Z,44.3
2017-03-18T05:53:46.075Z,44.4
2017-03-18T05:54:18.311Z,44.97
2017-03-18T05:54:50.554Z,44.4
2017-03-18T05:55:22.810Z,44.4
2017-03-18T05:55:55.066Z,44.97
2017-03-18T05:56:27.443Z,44.3
2017-03-18T05:56:59.705Z,44.3
2017-03-18T05:57:31.935Z,44.3
2017-03-18T05:58:04.171Z,44.3
2017-03-18T05:58:36.988Z,45.07
2017-03-18T05:59:09.238Z,44.59
2017-03-18T05:59:41.568Z,44.97
2017-03-18T06:00:13.826Z,44.87
2017-03-18T06:00:46.075Z,44.3
2017-03-18T06:01:18.996Z,44.4
2017-03-18T06:01:51.269Z,44.49
2017-03-18T06:02:23.511Z,44.87
2017-03-18T06:02:55.782Z,45.07
2017-03-18T06:03:28.997Z,44.97
2017-03-18T06:04:01.257Z,44.49
2017-03-18T06:04:33.517Z,45.16
2017-03-18T06:05:05.776Z,44.68
2017-03-18T06:05:38.041Z,44.87
2017-03-18T06:06:10.294Z,45.26
2017-03-18T06:06:42.546Z,44.97
2017-03-18T06:07:14.841Z,45.26
2017-03-18T06:07:47.090Z,44.87
2017-03-18T06:08:19.985Z,44.68
2017-03-18T06:08:52.232Z,44.49
2017-03-18T06:09:24.490Z,44.87
2017-03-18T06:09:56.741Z,44.97
2017-03-18T06:10:29.009Z,44.87
2017-03-18T06:11:01.921Z,44.8
2017-03-18T06:11:34.189Z,44.7
2017-03-18T06:12:06.451Z,44.68
2017-03-18T06:12:39.412Z,45
2017-03-18T06:13:11.668Z,44.8
2017-03-18T06:13:43.940Z,44.8
2017-03-18T06:14:17.013Z,45
2017-03-18T06:14:49.324Z,44.87
2017-03-18T06:15:21.570Z,44.78
2017-03-18T06:15:53.818Z,44.9
2017-03-18T06:16:26.096Z,45.26
2017-03-18T06:16:58.362Z,44.78
2017-03-18T06:17:30.604Z,44.8
2017-03-18T06:18:03.494Z,45.28
2017-03-18T06:18:35.763Z,45.18
2017-03-18T06:19:08.047Z,45.28
2017-03-18T06:19:40.299Z,45
2017-03-18T06:20:12.550Z,45.26
2017-03-18T06:20:44.831Z,45.18
2017-03-18T06:21:17.088Z,45.18
2017-03-18T06:21:49.330Z,45
2017-03-18T06:22:21.623Z,44.9
2017-03-18T06:22:53.900Z,45.18
2017-03-18T06:23:26.177Z,45.18
2017-03-18T06:23:58.542Z,44.9
2017-03-18T06:24:30.788Z,44.9
2017-03-18T06:25:03.046Z,45.18
2017-03-18T06:25:35.286Z,45.18
2017-03-18T06:26:07.541Z,45.18
2017-03-18T06:26:39.798Z,45.28
2017-03-18T06:27:12.039Z,45.37
2017-03-18T06:27:44.886Z,45.09
2017-03-18T06:28:17.132Z,45.18
2017-03-18T06:28:49.391Z,45.18
2017-03-18T06:29:21.662Z,45
2017-03-18T06:29:53.923Z,45.47
2017-03-18T06:30:26.176Z,45.37
2017-03-18T06:30:58.433Z,45
2017-03-18T06:31:30.683Z,45
2017-03-18T06:32:02.938Z,45.09
2017-03-18T06:32:35.255Z,45.18
2017-03-18T06:33:07.571Z,45
2017-03-18T06:33:39.894Z,45.18
2017-03-18T06:34:12.257Z,44.9
2017-03-18T06:34:44.567Z,45.09
2017-03-18T06:35:16.874Z,45.09
2017-03-18T06:35:49.191Z,44.9
2017-03-18T06:36:21.538Z,44.8
2017-03-18T06:36:53.845Z,44.8
2017-03-18T06:37:26.170Z,44.8
2017-03-18T06:37:58.494Z,45.18
2017-03-18T06:38:30.824Z,44.8
2017-03-18T06:39:03.139Z,45.37
2017-03-18T06:39:35.472Z,45.18
2017-03-18T06:40:07.792Z,44.9
2017-03-18T06:40:40.104Z,45.18
2017-03-18T06:41:12.403Z,45.28
2017-03-18T06:41:44.710Z,45.28
2017-03-18T06:42:17.031Z,45.37
2017-03-18T06:42:49.300Z,45.28
2017-03-18T06:43:21.658Z,45.18
2017-03-18T06:43:54.526Z,45.18
2017-03-18T06:44:26.798Z,45.37
2017-03-18T06:44:59.039Z,45.09
2017-03-18T06:45:31.287Z,45.18
2017-03-18T06:46:04.467Z,45.28
2017-03-18T06:46:36.727Z,45.09
2017-03-18T06:47:09.050Z,45.18
2017-03-18T06:47:41.324Z,45.28
2017-03-18T06:48:14.541Z,45.37
2017-03-18T06:48:46.809Z,45.09
2017-03-18T06:49:19.104Z,45.09
2017-03-18T06:49:51.361Z,45.18
2017-03-18T06:50:23.624Z,45.18
2017-03-18T06:50:55.880Z,45.18
2017-03-18T06:51:28.154Z,45.37
2017-03-18T06:52:01.370Z,45.09
2017-03-18T06:52:33.680Z,45.28
2017-03-18T06:53:06.020Z,45.28
2017-03-18T06:53:38.386Z,45.18
2017-03-18T06:54:10.698Z,45.09
2017-03-18T06:54:43.009Z,45.57
2017-03-18T06:55:15.333Z,45.57
2017-03-18T06:55:47.636Z,45.37
2017-03-18T06:56:19.939Z,45.47
2017-03-18T06:56:52.242Z,45.57
2017-03-18T06:57:24.551Z,45.47
2017-03-18T06:57:56.865Z,45.47
2017-03-18T06:58:29.175Z,45.37
2017-03-18T06:59:01.489Z,45.09
2017-03-18T06:59:33.801Z,45.37
2017-03-18T07:00:06.125Z,45.47
2017-03-18T07:00:38.458Z,45.37